Flight Track Log - Related Links

Times and Time Zones

All times are in EDT time to prevent confusion due to time zone crossing. See the SWA3764 flight status page for this flight to view local times or setup timezone preferences in your user account.

Time Position Orientation Groundspeed Altitude Reporting Facility
EDT Latitude Longitude Course Direction KTS MPH feet Rate Location/Type
Fri 09:22:07 AM 36.1667 -86.6333 39° Northeast 171 197 2,700  Level Nashville TRACON
Fri 09:23:07 AM 36.1833 -86.5667 73° East 211 243 5,700 2,435 Climbing Nashville TRACON
Fri 09:24:57 AM 36.0614 -86.5775 184° South 299 344 9,600 1,518 Climbing Memphis Center
Fri 09:25:57 AM 35.9767 -86.6069 196° South 299 344 10,000 400 Climbing Memphis Center
Fri 09:26:57 AM 35.8925 -86.6494 202° Southwest 321 369 10,400 2,200 Climbing Memphis Center
Fri 09:27:57 AM 35.8000 -86.6944 202° Southwest 326 375 14,400 3,400 Climbing Memphis Center
Fri 09:28:57 AM 35.7094 -86.7394 202° Southwest 340 391 17,200 2,817 Climbing Memphis Center
Fri 09:30:41 AM 35.5375 -86.7772 190° South 369 425 22,100 2,707 Climbing Atlanta Center
Fri 09:31:41 AM 35.4164 -86.7833 182° South 395 455 24,600 2,300 Climbing Atlanta Center
Fri 09:32:41 AM 35.2953 -86.7947 184° South 415 478 26,700 2,200 Climbing Atlanta Center
Fri 09:33:41 AM 35.1719 -86.8006 182° South 432 497 29,000 2,250 Climbing Atlanta Center
Fri 09:34:41 AM 35.0486 -86.8092 183° South 447 514 31,200 2,050 Climbing Atlanta Center
Fri 09:35:41 AM 34.9253 -86.8178 183° South 447 514 33,100 1,800 Climbing Atlanta Center
Fri 09:36:41 AM 34.7981 -86.8236 182° South 447 514 34,800 1,800 Climbing Atlanta Center
Fri 09:37:41 AM 34.6725 -86.8322 183° South 447 514 36,700 1,550 Climbing Atlanta Center
Fri 09:38:41 AM 34.5742 -86.8389 183° South 447 514 37,900 650 Climbing Atlanta Center
Fri 09:39:41 AM 34.4406 -86.8447 182° South 447 514 38,000 50 Climbing Atlanta Center
Fri 09:40:41 AM 34.3139 -86.8153 169° South 442 509 38,000 -250 Level Atlanta Center
Fri 09:41:41 AM 34.1894 -86.7861 169° South 454 522 37,500 -500 Descending Atlanta Center
Fri 09:42:41 AM 34.0650 -86.7544 168° South 460 529 37,000 -250 Descending Atlanta Center
Fri 09:43:41 AM 33.9361 -86.7253 169° South 466 536 37,000  Level Atlanta Center
Fri 09:44:41 AM 33.8117 -86.6939 168° South 466 536 37,000  Level Atlanta Center
Fri 09:45:41 AM 33.6869 -86.6628 168° South 466 536 37,000  Level Atlanta Center
Fri 09:46:41 AM 33.5583 -86.6339 169° South 466 536 37,000  Level Atlanta Center
Fri 09:47:41 AM 33.4336 -86.6028 168° South 466 536 37,000  Level Atlanta Center
Fri 09:48:41 AM 33.2964 -86.5814 173° South 466 536 37,000  Level Atlanta Center
Fri 09:49:41 AM 33.1739 -86.5406 164° South 460 529 37,000  Level Atlanta Center
Fri 09:50:41 AM 33.0472 -86.5119 169° South 460 529 37,000  Level Atlanta Center
Fri 09:51:41 AM 32.9225 -86.4814 168° South 465 535 37,000 -400 Level Atlanta Center
Fri 09:52:41 AM 32.8000 -86.4556 170° South 465 535 36,200 -900 Descending Atlanta Center
Fri 09:53:41 AM 32.6733 -86.4275 169° South 465 535 35,200 -950 Descending Atlanta Center
Fri 09:54:41 AM 32.5486 -86.3969 168° South 465 535 34,300 -900 Descending Atlanta Center
Fri 09:55:41 AM 32.4281 -86.3692 169° South 474 545 33,400 -950 Descending Atlanta Center
Fri 09:56:41 AM 32.3075 -86.3392 168° South 467 537 32,400 -1,045 Descending Atlanta Center
Fri 09:58:39 AM 32.0606 -86.2828 169° South 473 544 30,300 -1,112 Descending Jacksonville Center
Fri 09:59:39 AM 31.9444 -86.2514 167° South 458 527 29,100 -1,500 Descending Jacksonville Center
Fri 10:00:39 AM 31.8283 -86.2228 168° South 445 512 27,300 -1,835 Descending Jacksonville Center
Fri 10:01:40 AM 31.7186 -86.1944 168° South 422 486 25,400 -1,650 Descending Jacksonville Center
Fri 10:02:39 AM 31.6128 -86.1664 167° South 407 468 24,000 -1,765 Descending Jacksonville Center
Fri 10:03:39 AM 31.5111 -86.1383 167° South 391 450 21,900 -1,750 Descending Jacksonville Center
Fri 10:04:39 AM 31.4097 -86.1081 166° South 386 444 20,500 -1,450 Descending Jacksonville Center
Fri 10:05:39 AM 31.3164 -86.0806 166° South 367 422 19,000 -1,350 Descending Jacksonville Center
Fri 10:06:39 AM 31.2192 -86.0506 165° South 361 415 17,800 -1,519 Descending Jacksonville Center
Fri 10:06:58 AM 31.1797 -86.0394 166° South 359 413 17,000 -1,869 Descending Jacksonville Center
Fri 10:07:40 AM 31.1217 -86.0231 166° South 361 415 15,900 -1,782 Descending Jacksonville Center
Fri 10:08:39 AM 31.0242 -85.9906 164° South 361 415 14,000 -2,025 Descending Jacksonville Center
Fri 10:09:00 AM 30.9828 -85.9819 170° South 358 412 13,200 -1,800 Descending Jacksonville Center
Fri 10:09:39 AM 30.9311 -85.9611 161° South 356 410 12,200 -1,697 Descending Jacksonville Center
Fri 10:10:39 AM 30.8378 -85.9361 167° South 356 410 10,400 -1,350 Descending Jacksonville Center
Fri 10:11:39 AM 30.7528 -85.9019 161° South 343 395 9,500 -1,100 Descending Jacksonville Center
Fri 10:12:39 AM 30.6786 -85.8658 157° South 317 365 8,200 -1,450 Descending Jacksonville Center
Fri 10:13:39 AM 30.6042 -85.8297 157° South 295 339 6,600 -1,550 Descending Jacksonville Center
Fri 10:14:39 AM 30.5258 -85.7936 158° South 289 333 5,100 -1,200 Descending Jacksonville Center
Fri 10:15:39 AM 30.4658 -85.7653 158° South 276 318 4,200 -1,100 Descending Jacksonville Center
Fri 10:16:39 AM 30.4017 -85.7392 161° South 248 285 2,900 -1,000 Descending Jacksonville Center
Fri 10:17:39 AM 30.3458 -85.7158 160° South 222 255 2,200 -400 Descending Jacksonville Center
Fri 10:18:39 AM 30.2983 -85.6978 162° South 203 234 2,100 -298 Descending Jacksonville Center
Fri 10:19:40 AM 30.2869 -85.7431 254° West 146 168 1,600 -700 Descending Jacksonville Center
Fri 10:20:39 AM 30.3153 -85.7753 316° Northwest 89 102 700 2,218 Descending Jacksonville Center
Fri 10:21:39 AM 30.3400 -85.7975 322° Northwest 95 109 6,000 2,628 Climbing Jacksonville Center
Fri 10:22:40 AM 30.3561 -85.8222 307° West 95 109 6,000  Level Jacksonville Center

Login

Don't have an account? Register now (free) for customized features, flight alerts, and more!